Time;durP1;ratioP1;P1;durP2;ratioP2;P2;SDS_P1;SDS_P2;PMS_P1;PMS_P2;Temp;Humidity;BMP_temperature;BMP_pressure;BME280_temperature;BME280_humidity;BME280_pressure;Samples;Min_cycle;Max_cycle;Signal;HPM_P1;HPM_P2
2022/12/07 00:00:23;;;;;;;5.03;3.10;;;;;;;;;;5107765;28;20206;-62
2022/12/07 00:02:50;;;;;;;7.37;3.07;;;;;;;;;;5102908;28;20667;-62
2022/12/07 00:05:17;;;;;;;4.10;3.03;;;;;;;;;;5108240;28;20200;-62
2022/12/07 00:07:45;;;;;;;4.10;3.40;;;;;;;;;;5092296;28;20240;-62
2022/12/07 00:10:12;;;;;;;7.30;3.60;;;;;;;;;;5112012;28;20208;-62
2022/12/07 00:12:39;;;;;;;2.93;2.47;;;;;;;;;;5092235;28;20209;-62
2022/12/07 00:15:07;;;;;;;3.77;2.93;;;;;;;;;;5103467;28;20212;-62
2022/12/07 00:17:34;;;;;;;4.47;3.77;;;;;;;;;;5107480;28;20556;-62
2022/12/07 00:20:01;;;;;;;4.07;3.10;;;;;;;;;;5103298;28;20209;-62
2022/12/07 00:22:28;;;;;;;4.33;3.20;;;;;;;;;;5117250;27;20201;-62
2022/12/07 00:24:57;;;;;;;3.87;3.07;;;;;;;;;;5131598;27;20219;-63
2022/12/07 00:27:24;;;;;;;4.13;3.00;;;;;;;;;;5106102;28;20201;-61
2022/12/07 00:29:51;;;;;;;5.50;4.13;;;;;;;;;;5110651;27;20592;-62
2022/12/07 00:32:18;;;;;;;6.00;3.80;;;;;;;;;;5110255;28;20225;-62
2022/12/07 00:34:45;;;;;;;3.40;2.77;;;;;;;;;;5110667;28;20197;-63
2022/12/07 00:37:12;;;;;;;3.00;2.70;;;;;;;;;;5111706;28;20194;-62
2022/12/07 00:39:39;;;;;;;2.90;2.60;;;;;;;;;;5106471;28;20206;-62
2022/12/07 00:42:08;;;;;;;4.33;3.60;;;;;;;;;;5108803;28;20209;-62
2022/12/07 00:44:35;;;;;;;3.37;3.00;;;;;;;;;;5107353;28;20218;-62
2022/12/07 00:47:02;;;;;;;4.57;2.63;;;;;;;;;;5109707;28;20200;-63
2022/12/07 00:49:29;;;;;;;5.00;3.43;;;;;;;;;;5107248;28;20196;-63
2022/12/07 00:51:56;;;;;;;4.27;3.20;;;;;;;;;;5109238;28;20228;-62
2022/12/07 00:54:23;;;;;;;6.37;3.30;;;;;;;;;;5111234;28;20218;-62
2022/12/07 00:56:50;;;;;;;3.47;3.10;;;;;;;;;;5109473;28;20241;-62
2022/12/07 00:59:19;;;;;;;9.00;3.57;;;;;;;;;;5107689;28;20291;-62
2022/12/07 01:01:46;;;;;;;3.93;3.03;;;;;;;;;;5109340;28;20206;-62
2022/12/07 01:04:13;;;;;;;7.43;3.17;;;;;;;;;;5110555;28;20198;-62
2022/12/07 01:06:40;;;;;;;5.00;3.70;;;;;;;;;;5106182;28;20436;-63
2022/12/07 01:09:07;;;;;;;6.33;2.87;;;;;;;;;;5105616;28;20649;-62
2022/12/07 01:11:34;;;;;;;9.27;3.00;;;;;;;;;;5109246;28;20222;-62
2022/12/07 01:14:02;;;;;;;4.30;2.53;;;;;;;;;;5107183;28;20208;-63
2022/12/07 01:16:31;;;;;;;7.97;3.47;;;;;;;;;;5109519;28;20198;-62
2022/12/07 01:18:59;;;;;;;5.20;3.57;;;;;;;;;;5109048;28;20578;-62
2022/12/07 01:21:27;;;;;;;3.10;2.80;;;;;;;;;;5107925;27;20215;-62
2022/12/07 01:23:54;;;;;;;5.10;2.83;;;;;;;;;;5110115;28;20204;-63
2022/12/07 01:26:23;;;;;;;5.00;2.13;;;;;;;;;;5105797;28;20212;-62
2022/12/07 01:28:50;;;;;;;3.23;2.77;;;;;;;;;;5108192;28;20213;-62
2022/12/07 01:31:18;;;;;;;3.60;3.23;;;;;;;;;;5105020;28;20229;-62
2022/12/07 01:33:48;;;;;;;3.17;2.47;;;;;;;;;;5107411;28;20244;-62
2022/12/07 01:36:17;;;;;;;3.97;2.50;;;;;;;;;;5108681;28;20203;-62
2022/12/07 01:38:45;;;;;;;2.67;2.47;;;;;;;;;;5106498;28;20210;-63
2022/12/07 01:41:12;;;;;;;2.33;2.20;;;;;;;;;;5107722;28;20208;-62
2022/12/07 01:44:03;;;;;;;3.40;2.27;;;;;;;;;;5109461;28;20204;-62
2022/12/07 01:46:30;;;;;;;3.43;2.63;;;;;;;;;;5106657;28;20205;-62
2022/12/07 01:48:59;;;;;;;2.80;2.30;;;;;;;;;;5109206;28;20210;-62
2022/12/07 01:51:27;;;;;;;2.40;2.20;;;;;;;;;;5105929;28;20229;-63
2022/12/07 01:53:54;;;;;;;2.63;2.43;;;;;;;;;;5109807;28;20202;-63
2022/12/07 01:56:24;;;;;;;3.33;2.87;;;;;;;;;;5106726;28;20217;-63
2022/12/07 01:58:51;;;;;;;2.63;2.43;;;;;;;;;;5112559;27;20212;-62
2022/12/07 02:01:18;;;;;;;2.70;2.33;;;;;;;;;;5118000;27;20682;-63
2022/12/07 02:03:46;;;;;;;2.27;2.07;;;;;;;;;;5114964;27;20193;-63
2022/12/07 02:06:24;;;;;;;2.60;2.40;;;;;;;;;;5118530;27;20229;-62
2022/12/07 02:08:51;;;;;;;4.87;3.03;;;;;;;;;;5117258;27;20595;-62
2022/12/07 02:11:18;;;;;;;5.13;2.73;;;;;;;;;;5114961;27;20268;-63
2022/12/07 02:13:46;;;;;;;2.37;2.10;;;;;;;;;;5102210;28;20206;-62
2022/12/07 02:16:23;;;;;;;4.43;2.37;;;;;;;;;;5089055;28;20212;-62
2022/12/07 02:18:59;;;;;;;2.20;2.10;;;;;;;;;;5088681;28;20202;-62
2022/12/07 02:21:32;;;;;;;3.50;2.03;;;;;;;;;;5099208;28;20226;-63
2022/12/07 02:24:20;;;;;;;2.27;2.17;;;;;;;;;;5089563;28;20194;-62
2022/12/07 02:27:01;;;;;;;2.83;2.53;;;;;;;;;;5091258;28;20234;-62
2022/12/07 02:29:32;;;;;;;3.43;2.10;;;;;;;;;;5091893;28;20201;-63
2022/12/07 02:32:06;;;;;;;4.17;2.60;;;;;;;;;;5098448;28;20224;-63
2022/12/07 02:34:37;;;;;;;2.93;2.70;;;;;;;;;;5106827;27;20203;-62
2022/12/07 02:37:06;;;;;;;3.80;2.10;;;;;;;;;;5089330;28;20201;-62
2022/12/07 02:39:38;;;;;;;3.50;2.67;;;;;;;;;;5107413;28;20206;-63
2022/12/07 02:42:10;;;;;;;2.93;2.17;;;;;;;;;;5093504;28;20194;-63
2022/12/07 02:44:39;;;;;;;1.87;1.77;;;;;;;;;;5103912;28;20579;-63
2022/12/07 02:47:08;;;;;;;3.93;2.53;;;;;;;;;;5109347;28;20201;-62
2022/12/07 02:49:38;;;;;;;2.70;2.40;;;;;;;;;;5096443;28;20684;-62
2022/12/07 02:52:05;;;;;;;1.97;1.87;;;;;;;;;;5109550;28;20599;-62
2022/12/07 02:54:32;;;;;;;2.40;2.07;;;;;;;;;;5103463;28;20647;-62
2022/12/07 02:57:03;;;;;;;3.63;2.30;;;;;;;;;;5089416;28;20614;-63
2022/12/07 02:59:35;;;;;;;2.13;1.93;;;;;;;;;;5104076;28;20220;-62
2022/12/07 03:02:07;;;;;;;1.93;1.73;;;;;;;;;;5093205;28;20205;-62
2022/12/07 03:04:38;;;;;;;1.80;1.70;;;;;;;;;;5088924;28;20803;-62
2022/12/07 03:07:08;;;;;;;2.07;1.67;;;;;;;;;;5090810;28;20860;-62
2022/12/07 03:09:37;;;;;;;5.43;2.40;;;;;;;;;;5092464;28;20195;-62
2022/12/07 03:12:10;;;;;;;2.67;2.47;;;;;;;;;;5097601;28;20229;-63
2022/12/07 03:14:40;;;;;;;2.80;1.70;;;;;;;;;;5099306;28;20211;-62
2022/12/07 03:17:11;;;;;;;2.00;1.90;;;;;;;;;;5088679;28;20209;-61
2022/12/07 03:19:39;;;;;;;1.40;1.30;;;;;;;;;;5102255;28;20213;-62
2022/12/07 03:22:09;;;;;;;1.33;1.27;;;;;;;;;;5108117;28;20214;-61
2022/12/07 03:24:38;;;;;;;1.70;1.60;;;;;;;;;;5101323;28;20207;-61
2022/12/07 03:27:08;;;;;;;1.77;1.67;;;;;;;;;;5089227;28;20206;-61
2022/12/07 03:29:38;;;;;;;2.10;1.73;;;;;;;;;;5089434;28;20213;-61
2022/12/07 03:32:08;;;;;;;2.03;1.90;;;;;;;;;;5095272;28;20219;-61
2022/12/07 03:34:39;;;;;;;1.40;1.30;;;;;;;;;;5086528;28;20214;-61
2022/12/07 03:37:08;;;;;;;2.13;1.90;;;;;;;;;;5097099;28;20199;-61
2022/12/07 03:39:38;;;;;;;4.73;1.83;;;;;;;;;;5103130;28;20198;-61
2022/12/07 03:42:06;;;;;;;1.80;1.20;;;;;;;;;;5099792;28;20203;-61
2022/12/07 03:44:34;;;;;;;2.67;1.80;;;;;;;;;;5092131;28;20207;-61
2022/12/07 03:47:03;;;;;;;3.37;1.87;;;;;;;;;;5097052;28;20207;-61
2022/12/07 03:49:33;;;;;;;3.13;1.53;;;;;;;;;;5092063;28;20565;-61
2022/12/07 03:52:07;;;;;;;1.83;1.70;;;;;;;;;;5110471;28;20224;-61
2022/12/07 03:54:38;;;;;;;2.40;1.90;;;;;;;;;;5111838;28;20611;-62
2022/12/07 03:57:06;;;;;;;2.50;2.30;;;;;;;;;;5111020;28;20204;-61
2022/12/07 03:59:33;;;;;;;3.83;2.13;;;;;;;;;;5110744;28;20560;-61
2022/12/07 04:02:03;;;;;;;2.13;2.00;;;;;;;;;;5100543;28;20202;-61
2022/12/07 04:04:30;;;;;;;1.77;1.67;;;;;;;;;;5092570;28;20584;-61
2022/12/07 04:06:57;;;;;;;1.97;1.47;;;;;;;;;;5091411;28;20246;-61
2022/12/07 04:09:26;;;;;;;3.37;2.20;;;;;;;;;;5091868;28;20214;-61
2022/12/07 04:11:53;;;;;;;2.83;1.80;;;;;;;;;;5097070;28;20231;-61
2022/12/07 04:14:20;;;;;;;3.50;1.43;;;;;;;;;;5110517;28;20218;-61
2022/12/07 04:16:47;;;;;;;1.93;1.83;;;;;;;;;;5112013;28;20216;-61
2022/12/07 04:19:14;;;;;;;2.70;2.10;;;;;;;;;;5111978;28;20214;-60
2022/12/07 04:21:41;;;;;;;2.27;2.10;;;;;;;;;;5112392;28;20213;-61
2022/12/07 04:24:09;;;;;;;1.47;1.47;;;;;;;;;;5108886;28;20204;-61
2022/12/07 04:26:37;;;;;;;1.97;1.50;;;;;;;;;;5111662;28;20218;-61
2022/12/07 04:29:04;;;;;;;2.33;1.70;;;;;;;;;;5091257;28;20193;-61
2022/12/07 04:31:31;;;;;;;2.63;1.93;;;;;;;;;;5096806;28;20302;-61
2022/12/07 04:33:59;;;;;;;4.47;1.67;;;;;;;;;;5104011;28;20752;-61
2022/12/07 04:36:26;;;;;;;3.03;1.97;;;;;;;;;;5098054;28;20235;-61
2022/12/07 04:38:54;;;;;;;2.30;2.10;;;;;;;;;;5099709;28;20198;-60
2022/12/07 04:41:26;;;;;;;1.70;1.60;;;;;;;;;;5094009;28;20374;-61
2022/12/07 04:43:55;;;;;;;2.17;2.07;;;;;;;;;;5111750;28;20606;-61
2022/12/07 04:46:22;;;;;;;1.63;1.53;;;;;;;;;;5109197;28;20206;-61
2022/12/07 04:48:49;;;;;;;2.40;2.00;;;;;;;;;;5105384;28;20200;-61
2022/12/07 04:51:19;;;;;;;1.60;1.50;;;;;;;;;;5109522;28;20203;-62
2022/12/07 04:53:47;;;;;;;1.50;1.50;;;;;;;;;;5110866;28;20218;-61
2022/12/07 04:56:15;;;;;;;1.77;1.53;;;;;;;;;;5101937;27;20567;-61
2022/12/07 04:58:42;;;;;;;2.10;1.57;;;;;;;;;;5096298;28;20205;-61
2022/12/07 05:01:10;;;;;;;1.33;1.30;;;;;;;;;;5106134;28;20203;-61
2022/12/07 05:03:37;;;;;;;1.47;1.23;;;;;;;;;;5098377;28;20201;-61
2022/12/07 05:06:05;;;;;;;1.67;1.57;;;;;;;;;;5099069;28;20591;-61
2022/12/07 05:08:33;;;;;;;2.77;1.63;;;;;;;;;;5090136;28;20197;-61
2022/12/07 05:11:01;;;;;;;2.93;2.10;;;;;;;;;;5089581;28;20248;-61
2022/12/07 05:13:28;;;;;;;2.00;1.70;;;;;;;;;;5094528;28;20229;-62
2022/12/07 05:15:55;;;;;;;1.87;1.77;;;;;;;;;;5094251;28;20210;-61
2022/12/07 05:18:23;;;;;;;1.60;1.50;;;;;;;;;;5098035;28;20209;-61
2022/12/07 05:20:51;;;;;;;2.30;1.93;;;;;;;;;;5088856;28;20213;-61
2022/12/07 05:23:18;;;;;;;6.60;2.10;;;;;;;;;;5089174;28;20243;-61
2022/12/07 05:25:46;;;;;;;5.57;1.90;;;;;;;;;;5088930;28;20627;-61
2022/12/07 05:28:13;;;;;;;2.07;1.90;;;;;;;;;;5088923;28;20284;-61
2022/12/07 05:30:40;;;;;;;2.00;1.77;;;;;;;;;;5109264;28;20600;-62
2022/12/07 05:33:07;;;;;;;2.50;2.30;;;;;;;;;;5104587;28;20564;-62
2022/12/07 05:35:37;;;;;;;3.07;2.00;;;;;;;;;;5110531;28;20227;-62
2022/12/07 05:38:04;;;;;;;4.20;3.07;;;;;;;;;;5097617;28;20210;-61
2022/12/07 05:40:31;;;;;;;2.20;1.83;;;;;;;;;;5091628;28;20213;-61
2022/12/07 05:42:58;;;;;;;1.80;1.70;;;;;;;;;;5108040;28;20661;-62
2022/12/07 05:45:25;;;;;;;4.40;2.70;;;;;;;;;;5108933;28;20212;-62
2022/12/07 05:47:53;;;;;;;2.00;1.87;;;;;;;;;;5093693;28;20202;-62
2022/12/07 05:50:20;;;;;;;3.93;2.03;;;;;;;;;;5091506;28;20740;-62
2022/12/07 05:52:48;;;;;;;2.17;1.97;;;;;;;;;;5101353;28;20224;-62
2022/12/07 05:55:15;;;;;;;2.33;2.20;;;;;;;;;;5097082;28;20225;-62
2022/12/07 05:59:22;;;;;;;1.97;1.80;;;;;;;;;;5093674;28;20204;-62
2022/12/07 06:00:29;;;;;;;5.27;2.70;;;;;;;;;;5105190;28;20304;-62
2022/12/07 06:02:56;;;;;;;2.57;2.37;;;;;;;;;;5102480;28;20801;-63
2022/12/07 06:05:24;;;;;;;2.40;2.00;;;;;;;;;;5091347;28;20826;-63
2022/12/07 06:07:52;;;;;;;3.27;2.10;;;;;;;;;;5095428;28;20227;-63
2022/12/07 06:10:19;;;;;;;2.73;2.47;;;;;;;;;;5092144;28;20202;-62
2022/12/07 06:12:46;;;;;;;6.93;2.73;;;;;;;;;;5109871;28;20236;-62
2022/12/07 06:15:13;;;;;;;3.07;2.80;;;;;;;;;;5108516;28;20664;-63
2022/12/07 06:17:41;;;;;;;2.43;2.23;;;;;;;;;;5092047;28;20201;-62
2022/12/07 06:20:08;;;;;;;4.07;2.73;;;;;;;;;;5091571;28;20649;-62
2022/12/07 06:22:35;;;;;;;3.13;2.67;;;;;;;;;;5090462;28;20197;-62
2022/12/07 06:25:04;;;;;;;2.73;2.20;;;;;;;;;;5090368;28;20202;-62
2022/12/07 06:27:32;;;;;;;2.57;2.37;;;;;;;;;;5093992;28;20208;-62
2022/12/07 06:29:59;;;;;;;2.37;2.27;;;;;;;;;;5090085;28;20310;-62
2022/12/07 06:32:27;;;;;;;4.10;3.20;;;;;;;;;;5097204;28;20235;-62
2022/12/07 06:34:54;;;;;;;3.87;2.77;;;;;;;;;;5094002;28;20198;-62
2022/12/07 06:37:21;;;;;;;6.00;2.83;;;;;;;;;;5106482;28;20212;-62
2022/12/07 06:39:48;;;;;;;3.37;2.50;;;;;;;;;;5101643;28;20205;-62
2022/12/07 06:42:16;;;;;;;2.83;2.30;;;;;;;;;;5088780;28;20572;-62
2022/12/07 06:44:43;;;;;;;2.70;2.50;;;;;;;;;;5091164;28;20208;-61
2022/12/07 06:47:11;;;;;;;3.70;2.60;;;;;;;;;;5087487;28;20208;-62
2022/12/07 06:49:38;;;;;;;4.80;2.90;;;;;;;;;;5087078;28;20611;-62
2022/12/07 06:52:05;;;;;;;2.43;2.23;;;;;;;;;;5086348;28;20221;-63
2022/12/07 06:54:32;;;;;;;3.20;2.90;;;;;;;;;;5091575;28;20252;-63
2022/12/07 06:56:59;;;;;;;4.13;2.97;;;;;;;;;;5098303;28;20194;-62
2022/12/07 06:59:28;;;;;;;4.90;2.87;;;;;;;;;;5104208;28;20202;-62
2022/12/07 07:01:55;;;;;;;5.17;3.10;;;;;;;;;;5097065;28;20199;-62
2022/12/07 07:04:22;;;;;;;4.60;2.80;;;;;;;;;;5106082;27;20202;-62
2022/12/07 07:06:49;;;;;;;7.17;2.67;;;;;;;;;;5086735;28;20240;-62
2022/12/07 07:09:16;;;;;;;5.27;3.30;;;;;;;;;;5087037;28;20201;-62
2022/12/07 07:11:43;;;;;;;4.10;2.83;;;;;;;;;;5086530;28;20205;-62
2022/12/07 07:14:10;;;;;;;2.97;2.63;;;;;;;;;;5089576;28;20242;-63
2022/12/07 07:16:38;;;;;;;2.87;2.57;;;;;;;;;;5090610;28;20205;-63
2022/12/07 07:19:06;;;;;;;4.07;3.20;;;;;;;;;;5096827;28;20206;-63
2022/12/07 07:21:33;;;;;;;2.90;2.33;;;;;;;;;;5088161;28;20209;-62
2022/12/07 07:24:00;;;;;;;2.70;2.50;;;;;;;;;;5106063;28;20216;-63
2022/12/07 07:26:27;;;;;;;2.93;2.10;;;;;;;;;;5094744;28;20198;-61
2022/12/07 07:28:54;;;;;;;6.20;2.70;;;;;;;;;;5087003;28;20963;-61
2022/12/07 07:31:21;;;;;;;5.30;2.27;;;;;;;;;;5085673;28;20204;-63
2022/12/07 07:33:49;;;;;;;4.33;2.10;;;;;;;;;;5095557;28;20217;-63
2022/12/07 07:36:16;;;;;;;5.03;3.03;;;;;;;;;;5088181;28;20201;-63
2022/12/07 07:38:43;;;;;;;5.83;2.83;;;;;;;;;;5089407;28;20216;-63
2022/12/07 07:41:11;;;;;;;3.90;3.27;;;;;;;;;;5089781;28;20205;-62
2022/12/07 07:43:38;;;;;;;5.07;2.97;;;;;;;;;;5087450;28;20197;-62
2022/12/07 07:46:05;;;;;;;3.27;2.97;;;;;;;;;;5089547;28;20213;-62
2022/12/07 07:48:32;;;;;;;4.47;3.13;;;;;;;;;;5104291;28;20198;-63
2022/12/07 07:51:00;;;;;;;6.07;3.30;;;;;;;;;;5103625;28;20201;-63
2022/12/07 07:53:27;;;;;;;8.07;3.20;;;;;;;;;;5102441;28;20239;-63
2022/12/07 07:55:55;;;;;;;9.40;2.80;;;;;;;;;;5098939;28;20222;-62
2022/12/07 07:58:22;;;;;;;4.03;2.60;;;;;;;;;;5095690;28;20204;-63
2022/12/07 08:00:49;;;;;;;3.23;2.80;;;;;;;;;;5086672;28;20581;-63
2022/12/07 08:03:16;;;;;;;4.97;2.77;;;;;;;;;;5099947;28;20196;-63
2022/12/07 08:05:43;;;;;;;2.60;2.40;;;;;;;;;;5092115;28;20229;-63
2022/12/07 08:08:12;;;;;;;3.83;2.30;;;;;;;;;;5088570;28;20199;-62
2022/12/07 08:10:39;;;;;;;2.77;2.57;;;;;;;;;;5088518;28;20205;-63
2022/12/07 08:13:13;;;;;;;3.37;2.80;;;;;;;;;;5088325;28;20225;-63
2022/12/07 08:15:41;;;;;;;3.30;2.57;;;;;;;;;;5087285;28;20262;-63
2022/12/07 08:18:08;;;;;;;4.33;2.57;;;;;;;;;;5087286;28;20194;-63
2022/12/07 08:20:37;;;;;;;3.43;2.50;;;;;;;;;;5086253;28;20220;-63
2022/12/07 08:23:04;;;;;;;3.47;2.73;;;;;;;;;;5089159;28;20663;-63
2022/12/07 08:25:33;;;;;;;4.30;2.93;;;;;;;;;;5102252;28;20216;-63
2022/12/07 08:28:01;;;;;;;4.47;3.00;;;;;;;;;;5108441;28;20231;-63
2022/12/07 08:30:28;;;;;;;2.53;1.93;;;;;;;;;;5100103;28;20206;-63
2022/12/07 08:32:55;;;;;;;3.13;2.50;;;;;;;;;;5102316;28;20207;-62
2022/12/07 08:35:22;;;;;;;3.60;2.60;;;;;;;;;;5103786;28;20203;-63
2022/12/07 08:37:49;;;;;;;3.10;2.80;;;;;;;;;;5109058;28;20204;-62
2022/12/07 08:40:18;;;;;;;4.37;3.10;;;;;;;;;;5103916;28;20197;-64
2022/12/07 08:42:49;;;;;;;10.53;2.43;;;;;;;;;;5098940;27;20204;-63
2022/12/07 08:45:17;;;;;;;4.13;2.97;;;;;;;;;;5108985;28;20207;-63
2022/12/07 08:47:46;;;;;;;3.57;2.70;;;;;;;;;;5099540;28;20219;-63
2022/12/07 08:50:13;;;;;;;2.27;2.10;;;;;;;;;;5090907;28;20224;-62
2022/12/07 08:52:41;;;;;;;4.97;3.37;;;;;;;;;;5092179;28;20203;-63
2022/12/07 08:55:10;;;;;;;6.53;3.50;;;;;;;;;;5101027;28;20231;-63
2022/12/07 08:57:38;;;;;;;6.23;4.03;;;;;;;;;;5103572;28;20212;-63
2022/12/07 09:00:07;;;;;;;4.73;3.00;;;;;;;;;;5089973;28;20205;-63
2022/12/07 09:02:34;;;;;;;4.30;3.50;;;;;;;;;;5108702;28;20289;-63
2022/12/07 09:05:01;;;;;;;3.83;2.90;;;;;;;;;;5108177;28;20224;-63
2022/12/07 09:07:28;;;;;;;4.87;3.07;;;;;;;;;;5107964;28;20327;-63
2022/12/07 09:09:56;;;;;;;3.70;2.50;;;;;;;;;;5091797;28;20683;-63
2022/12/07 09:12:23;;;;;;;2.80;2.60;;;;;;;;;;5098826;28;20864;-62
2022/12/07 09:14:50;;;;;;;8.67;2.43;;;;;;;;;;5091629;28;20226;-63
2022/12/07 09:17:18;;;;;;;3.47;2.80;;;;;;;;;;5091883;28;20205;-63
2022/12/07 09:19:45;;;;;;;3.47;3.00;;;;;;;;;;5102662;28;20219;-63
2022/12/07 09:22:12;;;;;;;3.33;2.33;;;;;;;;;;5096465;27;20664;-63
2022/12/07 09:24:39;;;;;;;5.50;3.17;;;;;;;;;;5109003;28;20201;-63
2022/12/07 09:27:07;;;;;;;2.73;2.53;;;;;;;;;;5105948;28;20205;-63
2022/12/07 09:29:34;;;;;;;3.70;2.30;;;;;;;;;;5091074;28;20326;-63
2022/12/07 09:32:01;;;;;;;3.23;2.87;;;;;;;;;;5101180;28;20768;-62
2022/12/07 09:34:31;;;;;;;3.50;2.80;;;;;;;;;;5091506;28;20221;-63
2022/12/07 09:36:58;;;;;;;2.57;2.37;;;;;;;;;;5106410;28;20690;-63
2022/12/07 09:39:26;;;;;;;2.80;2.37;;;;;;;;;;5108130;28;20305;-63
2022/12/07 09:41:53;;;;;;;7.57;2.97;;;;;;;;;;5107545;28;20640;-62
2022/12/07 09:44:23;;;;;;;3.97;3.00;;;;;;;;;;5107241;28;20648;-63
2022/12/07 09:46:50;;;;;;;3.47;2.57;;;;;;;;;;5089034;28;20727;-63
2022/12/07 09:49:19;;;;;;;5.43;3.47;;;;;;;;;;5088945;28;20201;-62
2022/12/07 09:51:48;;;;;;;2.33;2.13;;;;;;;;;;5106421;28;20209;-63
2022/12/07 09:54:17;;;;;;;5.17;2.87;;;;;;;;;;5088784;28;20249;-63
2022/12/07 09:56:44;;;;;;;4.53;2.97;;;;;;;;;;5087682;28;20379;-63
2022/12/07 09:59:14;;;;;;;4.70;2.37;;;;;;;;;;5088910;28;20206;-63
2022/12/07 10:01:49;;;;;;;3.30;2.70;;;;;;;;;;5092315;28;20205;-63
2022/12/07 10:04:18;;;;;;;5.50;2.80;;;;;;;;;;5090563;28;20194;-63
2022/12/07 10:06:45;;;;;;;5.87;3.60;;;;;;;;;;5089270;28;20252;-63
2022/12/07 10:09:14;;;;;;;4.33;2.97;;;;;;;;;;5090885;28;20726;-63
2022/12/07 10:12:00;;;;;;;5.83;2.77;;;;;;;;;;5094362;28;20473;-63
2022/12/07 10:14:29;;;;;;;3.27;3.07;;;;;;;;;;5106209;28;20213;-63
2022/12/07 10:16:56;;;;;;;5.57;3.23;;;;;;;;;;5107661;28;20205;-63
2022/12/07 10:19:25;;;;;;;7.77;2.97;;;;;;;;;;5107246;28;20249;-63
2022/12/07 10:22:03;;;;;;;3.40;3.10;;;;;;;;;;5089433;28;20202;-63
2022/12/07 10:24:31;;;;;;;7.90;4.17;;;;;;;;;;5088329;28;20228;-63
2022/12/07 10:26:59;;;;;;;5.23;3.40;;;;;;;;;;5093382;27;20225;-63
2022/12/07 10:29:28;;;;;;;8.63;4.10;;;;;;;;;;5093706;28;20206;-62
2022/12/07 10:31:58;;;;;;;5.27;3.13;;;;;;;;;;5090396;28;20209;-63
2022/12/07 10:34:28;;;;;;;5.50;3.47;;;;;;;;;;5106933;28;22072;-62
2022/12/07 10:37:08;;;;;;;8.13;3.70;;;;;;;;;;5105331;28;20212;-63
2022/12/07 10:39:43;;;;;;;7.40;3.70;;;;;;;;;;5106937;28;20213;-63
2022/12/07 10:42:18;;;;;;;8.47;3.67;;;;;;;;;;5102177;28;20206;-63
2022/12/07 10:44:45;;;;;;;6.63;3.70;;;;;;;;;;5089269;28;20679;-63
2022/12/07 10:47:18;;;;;;;7.33;3.50;;;;;;;;;;5101754;28;20221;-63
2022/12/07 10:50:12;;;;;;;3.10;2.57;;;;;;;;;;5104112;28;20216;-63
2022/12/07 10:52:58;;;;;;;2.23;2.13;;;;;;;;;;5102732;28;20566;-63
2022/12/07 10:55:28;;;;;;;3.73;2.20;;;;;;;;;;5098648;28;20233;-63
2022/12/07 10:58:02;;;;;;;2.87;2.37;;;;;;;;;;5087645;28;20571;-63
2022/12/07 11:00:31;;;;;;;3.07;2.73;;;;;;;;;;5097249;28;20202;-63
2022/12/07 11:03:10;;;;;;;3.03;2.37;;;;;;;;;;5091153;28;20221;-63
2022/12/07 11:05:41;;;;;;;4.83;2.73;;;;;;;;;;5088936;28;20201;-63
2022/12/07 11:08:15;;;;;;;3.77;2.23;;;;;;;;;;5104099;28;20675;-63
2022/12/07 11:10:46;;;;;;;2.00;1.90;;;;;;;;;;5105555;28;20656;-63
2022/12/07 11:13:28;;;;;;;2.77;2.50;;;;;;;;;;5102706;28;20555;-63
2022/12/07 11:16:08;;;;;;;1.87;1.77;;;;;;;;;;5087507;28;20567;-63
2022/12/07 11:18:41;;;;;;;3.33;2.20;;;;;;;;;;5087086;28;20233;-63
2022/12/07 11:21:11;;;;;;;1.20;1.20;;;;;;;;;;5088973;28;20220;-62
2022/12/07 11:23:43;;;;;;;3.10;1.93;;;;;;;;;;5090076;28;20195;-63
2022/12/07 11:26:15;;;;;;;1.70;1.60;;;;;;;;;;5093478;28;20193;-63
2022/12/07 11:28:52;;;;;;;1.10;1.10;;;;;;;;;;5097733;28;20210;-63
2022/12/07 11:31:22;;;;;;;1.80;1.23;;;;;;;;;;5099608;28;20576;-63
2022/12/07 11:33:55;;;;;;;1.10;1.10;;;;;;;;;;5099302;28;20212;-63
2022/12/07 11:36:32;;;;;;;2.07;1.20;;;;;;;;;;5102429;28;20198;-63
2022/12/07 11:39:01;;;;;;;0.90;0.90;;;;;;;;;;5087818;28;20773;-63
2022/12/07 11:41:32;;;;;;;0.73;0.73;;;;;;;;;;5101596;28;20565;-63
2022/12/07 11:44:02;;;;;;;1.10;0.97;;;;;;;;;;5104208;28;20197;-63
2022/12/07 11:46:31;;;;;;;1.60;0.53;;;;;;;;;;5104856;28;20208;-63
2022/12/07 11:49:03;;;;;;;4.63;0.87;;;;;;;;;;5087352;28;20209;-63
2022/12/07 11:51:31;;;;;;;0.93;0.70;;;;;;;;;;5102141;28;20206;-63
2022/12/07 11:54:01;;;;;;;1.57;0.83;;;;;;;;;;5091361;28;20271;-62
2022/12/07 11:56:30;;;;;;;0.73;0.73;;;;;;;;;;5104087;28;20228;-63
2022/12/07 11:59:00;;;;;;;2.50;1.00;;;;;;;;;;5099107;28;20227;-63
2022/12/07 12:01:33;;;;;;;0.77;0.77;;;;;;;;;;5111998;27;20205;-63
2022/12/07 12:04:04;;;;;;;2.23;0.67;;;;;;;;;;5110190;28;20284;-63
2022/12/07 12:06:34;;;;;;;2.73;1.13;;;;;;;;;;5094495;28;20605;-63
2022/12/07 12:09:04;;;;;;;0.80;0.80;;;;;;;;;;5092476;28;20214;-63
2022/12/07 12:11:40;;;;;;;1.17;1.07;;;;;;;;;;5111848;28;20217;-63
2022/12/07 12:14:13;;;;;;;1.77;1.20;;;;;;;;;;5102994;27;20226;-63
2022/12/07 12:16:50;;;;;;;1.07;0.90;;;;;;;;;;5091608;28;20206;-63
2022/12/07 12:19:24;;;;;;;0.90;0.90;;;;;;;;;;5091623;28;20214;-64
2022/12/07 12:21:55;;;;;;;3.40;0.63;;;;;;;;;;5105085;28;20300;-63
2022/12/07 12:24:25;;;;;;;1.27;0.80;;;;;;;;;;5104804;28;20203;-62
2022/12/07 12:26:55;;;;;;;3.53;0.93;;;;;;;;;;5093027;28;20206;-62
2022/12/07 12:29:24;;;;;;;1.30;1.17;;;;;;;;;;5104448;28;20209;-63
2022/12/07 12:32:06;;;;;;;5.13;0.73;;;;;;;;;;5096516;28;20217;-63
2022/12/07 12:34:39;;;;;;;1.93;1.00;;;;;;;;;;5096637;28;20218;-63
2022/12/07 12:37:35;;;;;;;1.43;0.80;;;;;;;;;;5112012;28;20266;-63
2022/12/07 12:40:31;;;;;;;2.17;0.90;;;;;;;;;;5110112;28;20217;-65
2022/12/07 12:42:59;;;;;;;0.67;0.50;;;;;;;;;;5093200;28;20657;-63
2022/12/07 12:45:27;;;;;;;4.80;0.80;;;;;;;;;;5092164;28;20213;-62
2022/12/07 12:47:57;;;;;;;0.60;0.60;;;;;;;;;;5092184;28;20210;-63
2022/12/07 12:50:25;;;;;;;0.63;0.50;;;;;;;;;;5102752;28;20734;-63
2022/12/07 12:52:55;;;;;;;2.00;0.57;;;;;;;;;;5111675;28;20213;-63
2022/12/07 12:55:52;;;;;;;0.70;0.70;;;;;;;;;;5092407;28;20242;-63
2022/12/07 12:58:40;;;;;;;0.30;0.30;;;;;;;;;;5091396;28;20207;-63
2022/12/07 13:01:26;;;;;;;0.77;0.77;;;;;;;;;;5091204;28;20214;-63
2022/12/07 13:03:54;;;;;;;0.73;0.67;;;;;;;;;;5108475;28;20197;-61
2022/12/07 13:06:33;;;;;;;0.37;0.37;;;;;;;;;;5101508;28;20740;-63
2022/12/07 13:09:01;;;;;;;0.60;0.60;;;;;;;;;;5101947;28;20684;-63
2022/12/07 13:11:31;;;;;;;0.67;0.60;;;;;;;;;;5110674;28;20201;-63
2022/12/07 13:14:13;;;;;;;2.37;0.63;;;;;;;;;;5110563;28;20225;-63
2022/12/07 13:16:42;;;;;;;0.50;0.50;;;;;;;;;;5110290;28;20210;-64
2022/12/07 13:19:54;;;;;;;0.63;0.33;;;;;;;;;;5110376;28;20209;-61
2022/12/07 13:22:40;;;;;;;2.60;0.23;;;;;;;;;;5089945;28;20716;-63
2022/12/07 13:25:10;;;;;;;0.70;0.27;;;;;;;;;;5089973;28;20199;-63
2022/12/07 13:27:38;;;;;;;0.77;0.50;;;;;;;;;;5103713;27;20572;-63
2022/12/07 13:30:09;;;;;;;0.60;0.30;;;;;;;;;;5109556;27;20201;-63
2022/12/07 13:32:38;;;;;;;1.73;1.00;;;;;;;;;;5108914;28;20205;-63
2022/12/07 13:35:21;;;;;;;0.60;0.40;;;;;;;;;;5109676;28;20226;-63
2022/12/07 13:37:49;;;;;;;0.43;0.43;;;;;;;;;;5103601;27;20656;-64
2022/12/07 13:40:20;;;;;;;2.37;0.60;;;;;;;;;;5090337;28;20209;-63
2022/12/07 13:42:47;;;;;;;0.67;0.63;;;;;;;;;;5090057;28;20215;-63
2022/12/07 13:45:22;;;;;;;4.23;0.70;;;;;;;;;;5090490;28;20198;-63
2022/12/07 13:47:54;;;;;;;0.57;0.40;;;;;;;;;;5097840;27;20571;-63
2022/12/07 13:50:24;;;;;;;0.53;0.53;;;;;;;;;;5110626;28;20583;-63
2022/12/07 13:52:51;;;;;;;0.63;0.60;;;;;;;;;;5099995;28;20669;-63
2022/12/07 13:55:19;;;;;;;0.80;0.80;;;;;;;;;;5090043;28;20233;-63
2022/12/07 13:57:47;;;;;;;0.83;0.50;;;;;;;;;;5104552;28;20220;-63
2022/12/07 14:00:16;;;;;;;3.67;0.43;;;;;;;;;;5110429;27;20210;-63
2022/12/07 14:02:55;;;;;;;0.60;0.60;;;;;;;;;;5110182;28;20220;-63
2022/12/07 14:05:26;;;;;;;0.47;0.47;;;;;;;;;;5096699;28;20206;-63
2022/12/07 14:07:56;;;;;;;0.70;0.70;;;;;;;;;;5089790;28;20730;-63
2022/12/07 14:10:24;;;;;;;0.63;0.63;;;;;;;;;;5089890;28;20210;-63
2022/12/07 14:12:51;;;;;;;0.37;0.37;;;;;;;;;;5097313;28;20209;-63
2022/12/07 14:15:22;;;;;;;0.20;0.20;;;;;;;;;;5090888;28;20704;-64
2022/12/07 14:17:53;;;;;;;0.30;0.30;;;;;;;;;;5096634;28;20296;-64
2022/12/07 14:20:32;;;;;;;0.27;0.27;;;;;;;;;;5109385;28;20205;-65
2022/12/07 14:22:59;;;;;;;0.30;0.30;;;;;;;;;;5110094;28;20760;-62
2022/12/07 14:25:27;;;;;;;0.77;0.60;;;;;;;;;;5108103;28;20201;-62
2022/12/07 14:27:57;;;;;;;3.17;0.77;;;;;;;;;;5109283;28;20720;-62
2022/12/07 14:30:25;;;;;;;1.50;1.07;;;;;;;;;;5108917;28;20217;-62
2022/12/07 14:32:53;;;;;;;1.90;0.70;;;;;;;;;;5109670;28;20220;-62
2022/12/07 14:35:21;;;;;;;1.10;0.70;;;;;;;;;;5107885;28;20593;-62
2022/12/07 14:37:50;;;;;;;9.80;5.07;;;;;;;;;;5089493;28;20216;-62
2022/12/07 14:40:18;;;;;;;18.17;7.03;;;;;;;;;;5089386;28;20447;-62
2022/12/07 14:42:46;;;;;;;1.13;0.97;;;;;;;;;;5088902;28;20604;-62
2022/12/07 14:45:17;;;;;;;0.80;0.80;;;;;;;;;;5102715;28;20194;-62
2022/12/07 14:47:45;;;;;;;0.70;0.70;;;;;;;;;;5108478;28;20213;-61
2022/12/07 14:50:13;;;;;;;0.60;0.60;;;;;;;;;;5109488;28;20209;-62
2022/12/07 14:52:40;;;;;;;0.70;0.70;;;;;;;;;;5109537;28;20198;-62
2022/12/07 14:55:14;;;;;;;0.70;0.70;;;;;;;;;;5109285;28;20229;-62
2022/12/07 14:57:41;;;;;;;1.93;1.33;;;;;;;;;;5105380;28;20266;-62